sensor_id;sensor_type;location;lat;lon;timestamp;P1;durP1;ratioP1;P2;durP2;ratioP2
15490;SDS011;7847;50.930;4.336;2023-10-08T00:00:49;0.20;;;0.20;;
15490;SDS011;7847;50.930;4.336;2023-10-08T00:03:18;0.10;;;0.10;;
15490;SDS011;7847;50.930;4.336;2023-10-08T00:05:45;0.20;;;0.20;;
15490;SDS011;7847;50.930;4.336;2023-10-08T00:08:12;0.20;;;0.20;;
15490;SDS011;7847;50.930;4.336;2023-10-08T00:10:41;0.20;;;0.20;;
15490;SDS011;7847;50.930;4.336;2023-10-08T00:13:08;0.20;;;0.20;;
15490;SDS011;7847;50.930;4.336;2023-10-08T00:15:41;0.20;;;0.20;;
15490;SDS011;7847;50.930;4.336;2023-10-08T00:18:15;0.20;;;0.20;;
15490;SDS011;7847;50.930;4.336;2023-10-08T00:20:42;0.20;;;0.20;;
15490;SDS011;7847;50.930;4.336;2023-10-08T00:23:11;0.20;;;0.20;;
15490;SDS011;7847;50.930;4.336;2023-10-08T00:25:37;0.20;;;0.20;;
15490;SDS011;7847;50.930;4.336;2023-10-08T00:28:06;0.20;;;0.20;;
15490;SDS011;7847;50.930;4.336;2023-10-08T00:30:35;0.20;;;0.20;;
15490;SDS011;7847;50.930;4.336;2023-10-08T00:33:03;0.20;;;0.20;;
15490;SDS011;7847;50.930;4.336;2023-10-08T00:35:29;0.20;;;0.20;;
15490;SDS011;7847;50.930;4.336;2023-10-08T00:37:56;0.20;;;0.20;;
15490;SDS011;7847;50.930;4.336;2023-10-08T00:40:27;0.20;;;0.20;;
15490;SDS011;7847;50.930;4.336;2023-10-08T00:43:01;0.20;;;0.20;;
15490;SDS011;7847;50.930;4.336;2023-10-08T00:45:38;0.20;;;0.20;;
15490;SDS011;7847;50.930;4.336;2023-10-08T00:48:10;0.20;;;0.20;;
15490;SDS011;7847;50.930;4.336;2023-10-08T00:50:41;0.20;;;0.20;;
15490;SDS011;7847;50.930;4.336;2023-10-08T00:53:09;0.20;;;0.20;;
15490;SDS011;7847;50.930;4.336;2023-10-08T00:55:48;0.20;;;0.20;;
15490;SDS011;7847;50.930;4.336;2023-10-08T00:58:32;0.20;;;0.20;;
15490;SDS011;7847;50.930;4.336;2023-10-08T01:00:59;0.20;;;0.20;;
15490;SDS011;7847;50.930;4.336;2023-10-08T01:03:28;0.20;;;0.20;;
15490;SDS011;7847;50.930;4.336;2023-10-08T01:05:54;0.20;;;0.20;;
15490;SDS011;7847;50.930;4.336;2023-10-08T01:08:22;0.20;;;0.20;;
15490;SDS011;7847;50.930;4.336;2023-10-08T01:10:59;0.20;;;0.20;;
15490;SDS011;7847;50.930;4.336;2023-10-08T01:13:26;0.20;;;0.20;;
15490;SDS011;7847;50.930;4.336;2023-10-08T01:15:52;0.20;;;0.20;;
15490;SDS011;7847;50.930;4.336;2023-10-08T01:18:20;0.20;;;0.20;;
15490;SDS011;7847;50.930;4.336;2023-10-08T01:20:56;0.20;;;0.20;;
15490;SDS011;7847;50.930;4.336;2023-10-08T01:23:29;0.20;;;0.20;;
15490;SDS011;7847;50.930;4.336;2023-10-08T01:25:57;0.20;;;0.20;;
15490;SDS011;7847;50.930;4.336;2023-10-08T01:28:35;0.20;;;0.20;;
15490;SDS011;7847;50.930;4.336;2023-10-08T01:31:01;0.20;;;0.20;;
15490;SDS011;7847;50.930;4.336;2023-10-08T01:33:31;0.20;;;0.20;;
15490;SDS011;7847;50.930;4.336;2023-10-08T01:36:08;0.20;;;0.20;;
15490;SDS011;7847;50.930;4.336;2023-10-08T01:38:38;0.20;;;0.20;;
15490;SDS011;7847;50.930;4.336;2023-10-08T01:41:06;0.20;;;0.20;;
15490;SDS011;7847;50.930;4.336;2023-10-08T01:43:44;0.20;;;0.20;;
15490;SDS011;7847;50.930;4.336;2023-10-08T01:46:10;0.20;;;0.20;;
15490;SDS011;7847;50.930;4.336;2023-10-08T01:48:37;0.20;;;0.20;;
15490;SDS011;7847;50.930;4.336;2023-10-08T01:51:04;0.20;;;0.20;;
15490;SDS011;7847;50.930;4.336;2023-10-08T01:53:44;0.20;;;0.20;;
15490;SDS011;7847;50.930;4.336;2023-10-08T01:56:10;0.20;;;0.20;;
15490;SDS011;7847;50.930;4.336;2023-10-08T01:58:36;0.20;;;0.20;;
15490;SDS011;7847;50.930;4.336;2023-10-08T02:01:02;0.20;;;0.20;;
15490;SDS011;7847;50.930;4.336;2023-10-08T02:03:30;0.20;;;0.20;;
15490;SDS011;7847;50.930;4.336;2023-10-08T02:05:56;0.20;;;0.20;;
15490;SDS011;7847;50.930;4.336;2023-10-08T02:08:24;0.20;;;0.20;;
15490;SDS011;7847;50.930;4.336;2023-10-08T02:10:56;0.20;;;0.20;;
15490;SDS011;7847;50.930;4.336;2023-10-08T02:13:22;0.20;;;0.20;;
15490;SDS011;7847;50.930;4.336;2023-10-08T02:15:51;0.20;;;0.20;;
15490;SDS011;7847;50.930;4.336;2023-10-08T02:18:17;0.20;;;0.20;;
15490;SDS011;7847;50.930;4.336;2023-10-08T02:20:44;0.20;;;0.20;;
15490;SDS011;7847;50.930;4.336;2023-10-08T02:23:10;0.20;;;0.20;;
15490;SDS011;7847;50.930;4.336;2023-10-08T02:25:39;0.20;;;0.20;;
15490;SDS011;7847;50.930;4.336;2023-10-08T02:28:06;0.30;;;0.30;;
15490;SDS011;7847;50.930;4.336;2023-10-08T02:30:37;0.30;;;0.30;;
15490;SDS011;7847;50.930;4.336;2023-10-08T02:33:04;0.20;;;0.20;;
15490;SDS011;7847;50.930;4.336;2023-10-08T02:35:39;0.20;;;0.20;;
15490;SDS011;7847;50.930;4.336;2023-10-08T02:38:05;0.20;;;0.20;;
15490;SDS011;7847;50.930;4.336;2023-10-08T02:40:31;0.30;;;0.30;;
15490;SDS011;7847;50.930;4.336;2023-10-08T02:42:57;0.22;;;0.22;;
15490;SDS011;7847;50.930;4.336;2023-10-08T02:45:27;0.20;;;0.20;;
15490;SDS011;7847;50.930;4.336;2023-10-08T02:47:54;0.20;;;0.20;;
15490;SDS011;7847;50.930;4.336;2023-10-08T02:50:21;0.20;;;0.20;;
15490;SDS011;7847;50.930;4.336;2023-10-08T02:52:48;0.20;;;0.20;;
15490;SDS011;7847;50.930;4.336;2023-10-08T02:55:15;0.20;;;0.20;;
15490;SDS011;7847;50.930;4.336;2023-10-08T02:57:59;0.20;;;0.20;;
15490;SDS011;7847;50.930;4.336;2023-10-08T03:00:27;0.20;;;0.20;;
15490;SDS011;7847;50.930;4.336;2023-10-08T03:02:54;0.30;;;0.30;;
15490;SDS011;7847;50.930;4.336;2023-10-08T03:05:20;0.20;;;0.20;;
15490;SDS011;7847;50.930;4.336;2023-10-08T03:07:47;0.20;;;0.20;;
15490;SDS011;7847;50.930;4.336;2023-10-08T03:10:16;0.20;;;0.20;;
15490;SDS011;7847;50.930;4.336;2023-10-08T03:12:43;0.20;;;0.20;;
15490;SDS011;7847;50.930;4.336;2023-10-08T03:15:12;0.20;;;0.20;;
15490;SDS011;7847;50.930;4.336;2023-10-08T03:17:39;0.30;;;0.30;;
15490;SDS011;7847;50.930;4.336;2023-10-08T03:20:16;0.20;;;0.20;;
15490;SDS011;7847;50.930;4.336;2023-10-08T03:23:03;0.20;;;0.20;;
15490;SDS011;7847;50.930;4.336;2023-10-08T03:25:55;0.20;;;0.20;;
15490;SDS011;7847;50.930;4.336;2023-10-08T03:28:26;0.30;;;0.30;;
15490;SDS011;7847;50.930;4.336;2023-10-08T03:30:59;0.20;;;0.20;;
15490;SDS011;7847;50.930;4.336;2023-10-08T03:33:38;0.20;;;0.20;;
15490;SDS011;7847;50.930;4.336;2023-10-08T03:36:05;0.30;;;0.30;;
15490;SDS011;7847;50.930;4.336;2023-10-08T03:38:36;0.20;;;0.20;;
15490;SDS011;7847;50.930;4.336;2023-10-08T03:41:24;0.20;;;0.20;;
15490;SDS011;7847;50.930;4.336;2023-10-08T03:43:54;0.20;;;0.20;;
15490;SDS011;7847;50.930;4.336;2023-10-08T03:46:38;0.20;;;0.20;;
15490;SDS011;7847;50.930;4.336;2023-10-08T03:49:07;0.20;;;0.20;;
15490;SDS011;7847;50.930;4.336;2023-10-08T03:51:39;0.20;;;0.20;;
15490;SDS011;7847;50.930;4.336;2023-10-08T03:54:08;0.30;;;0.30;;
15490;SDS011;7847;50.930;4.336;2023-10-08T03:56:34;0.20;;;0.20;;
15490;SDS011;7847;50.930;4.336;2023-10-08T03:59:02;0.30;;;0.30;;
15490;SDS011;7847;50.930;4.336;2023-10-08T04:01:45;0.20;;;0.20;;
15490;SDS011;7847;50.930;4.336;2023-10-08T04:04:14;0.30;;;0.30;;
15490;SDS011;7847;50.930;4.336;2023-10-08T04:06:41;0.20;;;0.20;;
15490;SDS011;7847;50.930;4.336;2023-10-08T04:09:14;0.20;;;0.20;;
15490;SDS011;7847;50.930;4.336;2023-10-08T04:11:49;0.20;;;0.20;;
15490;SDS011;7847;50.930;4.336;2023-10-08T04:14:22;0.20;;;0.20;;
15490;SDS011;7847;50.930;4.336;2023-10-08T04:16:48;0.20;;;0.20;;
15490;SDS011;7847;50.930;4.336;2023-10-08T04:19:18;0.20;;;0.20;;
15490;SDS011;7847;50.930;4.336;2023-10-08T04:21:44;0.30;;;0.30;;
15490;SDS011;7847;50.930;4.336;2023-10-08T04:24:18;0.20;;;0.20;;
15490;SDS011;7847;50.930;4.336;2023-10-08T04:26:45;0.20;;;0.20;;
15490;SDS011;7847;50.930;4.336;2023-10-08T04:29:11;0.20;;;0.20;;
15490;SDS011;7847;50.930;4.336;2023-10-08T04:31:41;0.20;;;0.20;;
15490;SDS011;7847;50.930;4.336;2023-10-08T04:34:11;0.20;;;0.20;;
15490;SDS011;7847;50.930;4.336;2023-10-08T04:36:42;0.20;;;0.20;;
15490;SDS011;7847;50.930;4.336;2023-10-08T04:39:10;0.20;;;0.20;;
15490;SDS011;7847;50.930;4.336;2023-10-08T04:41:42;0.20;;;0.20;;
15490;SDS011;7847;50.930;4.336;2023-10-08T04:44:09;0.20;;;0.20;;
15490;SDS011;7847;50.930;4.336;2023-10-08T04:46:42;0.20;;;0.20;;
15490;SDS011;7847;50.930;4.336;2023-10-08T04:49:10;0.20;;;0.20;;
15490;SDS011;7847;50.930;4.336;2023-10-08T04:51:52;0.20;;;0.20;;
15490;SDS011;7847;50.930;4.336;2023-10-08T04:54:22;0.20;;;0.20;;
15490;SDS011;7847;50.930;4.336;2023-10-08T04:56:48;0.20;;;0.20;;
15490;SDS011;7847;50.930;4.336;2023-10-08T04:59:14;0.20;;;0.20;;
15490;SDS011;7847;50.930;4.336;2023-10-08T05:01:46;0.20;;;0.20;;
15490;SDS011;7847;50.930;4.336;2023-10-08T05:04:30;0.20;;;0.20;;
15490;SDS011;7847;50.930;4.336;2023-10-08T05:07:11;0.20;;;0.20;;
15490;SDS011;7847;50.930;4.336;2023-10-08T05:09:47;0.20;;;0.20;;
15490;SDS011;7847;50.930;4.336;2023-10-08T05:12:29;0.20;;;0.20;;
15490;SDS011;7847;50.930;4.336;2023-10-08T05:14:58;0.20;;;0.20;;
15490;SDS011;7847;50.930;4.336;2023-10-08T05:17:39;0.20;;;0.20;;
15490;SDS011;7847;50.930;4.336;2023-10-08T05:20:14;0.20;;;0.20;;
15490;SDS011;7847;50.930;4.336;2023-10-08T05:22:59;0.20;;;0.20;;
15490;SDS011;7847;50.930;4.336;2023-10-08T05:25:45;0.20;;;0.20;;
15490;SDS011;7847;50.930;4.336;2023-10-08T05:28:34;0.20;;;0.20;;
15490;SDS011;7847;50.930;4.336;2023-10-08T05:31:10;0.20;;;0.20;;
15490;SDS011;7847;50.930;4.336;2023-10-08T05:33:36;0.20;;;0.20;;
15490;SDS011;7847;50.930;4.336;2023-10-08T05:36:21;0.20;;;0.20;;
15490;SDS011;7847;50.930;4.336;2023-10-08T05:39:01;0.20;;;0.20;;
15490;SDS011;7847;50.930;4.336;2023-10-08T05:41:41;0.20;;;0.20;;
15490;SDS011;7847;50.930;4.336;2023-10-08T05:44:17;0.30;;;0.30;;
15490;SDS011;7847;50.930;4.336;2023-10-08T05:46:43;0.20;;;0.20;;
15490;SDS011;7847;50.930;4.336;2023-10-08T05:49:24;0.20;;;0.20;;
15490;SDS011;7847;50.930;4.336;2023-10-08T05:51:55;0.30;;;0.30;;
15490;SDS011;7847;50.930;4.336;2023-10-08T05:54:39;0.20;;;0.20;;
15490;SDS011;7847;50.930;4.336;2023-10-08T05:57:22;0.20;;;0.20;;
15490;SDS011;7847;50.930;4.336;2023-10-08T06:00:11;0.20;;;0.20;;
15490;SDS011;7847;50.930;4.336;2023-10-08T06:02:42;0.20;;;0.20;;
15490;SDS011;7847;50.930;4.336;2023-10-08T06:05:11;0.28;;;0.28;;
15490;SDS011;7847;50.930;4.336;2023-10-08T06:07:47;0.25;;;0.25;;
15490;SDS011;7847;50.930;4.336;2023-10-08T06:12:59;0.30;;;0.30;;
15490;SDS011;7847;50.930;4.336;2023-10-08T06:15:41;0.20;;;0.20;;
15490;SDS011;7847;50.930;4.336;2023-10-08T06:18:20;0.20;;;0.20;;
15490;SDS011;7847;50.930;4.336;2023-10-08T06:20:51;0.20;;;0.20;;
15490;SDS011;7847;50.930;4.336;2023-10-08T06:23:19;0.20;;;0.20;;
15490;SDS011;7847;50.930;4.336;2023-10-08T06:25:48;0.20;;;0.20;;
15490;SDS011;7847;50.930;4.336;2023-10-08T06:28:19;0.20;;;0.20;;
15490;SDS011;7847;50.930;4.336;2023-10-08T06:30:49;0.20;;;0.20;;
15490;SDS011;7847;50.930;4.336;2023-10-08T06:33:19;0.28;;;0.28;;
15490;SDS011;7847;50.930;4.336;2023-10-08T06:35:46;0.20;;;0.20;;
15490;SDS011;7847;50.930;4.336;2023-10-08T06:38:28;0.20;;;0.20;;
15490;SDS011;7847;50.930;4.336;2023-10-08T06:40:58;0.20;;;0.20;;
15490;SDS011;7847;50.930;4.336;2023-10-08T06:43:33;0.20;;;0.20;;
15490;SDS011;7847;50.930;4.336;2023-10-08T06:46:01;0.20;;;0.20;;
15490;SDS011;7847;50.930;4.336;2023-10-08T06:48:28;0.20;;;0.20;;
15490;SDS011;7847;50.930;4.336;2023-10-08T06:50:54;0.20;;;0.20;;
15490;SDS011;7847;50.930;4.336;2023-10-08T06:53:21;0.30;;;0.30;;
15490;SDS011;7847;50.930;4.336;2023-10-08T06:55:48;0.20;;;0.20;;
15490;SDS011;7847;50.930;4.336;2023-10-08T06:58:21;0.20;;;0.20;;
15490;SDS011;7847;50.930;4.336;2023-10-08T07:00:48;0.20;;;0.20;;
15490;SDS011;7847;50.930;4.336;2023-10-08T07:03:15;0.30;;;0.30;;
15490;SDS011;7847;50.930;4.336;2023-10-08T07:05:46;0.20;;;0.20;;
15490;SDS011;7847;50.930;4.336;2023-10-08T07:08:29;0.30;;;0.30;;
15490;SDS011;7847;50.930;4.336;2023-10-08T07:11:01;0.30;;;0.30;;
15490;SDS011;7847;50.930;4.336;2023-10-08T07:13:31;0.20;;;0.20;;
15490;SDS011;7847;50.930;4.336;2023-10-08T07:15:58;0.20;;;0.20;;
15490;SDS011;7847;50.930;4.336;2023-10-08T07:18:28;0.20;;;0.20;;
15490;SDS011;7847;50.930;4.336;2023-10-08T07:20:56;0.20;;;0.20;;
15490;SDS011;7847;50.930;4.336;2023-10-08T07:23:26;0.20;;;0.20;;
15490;SDS011;7847;50.930;4.336;2023-10-08T07:25:55;0.30;;;0.30;;
15490;SDS011;7847;50.930;4.336;2023-10-08T07:28:40;0.20;;;0.20;;
15490;SDS011;7847;50.930;4.336;2023-10-08T07:31:19;0.20;;;0.20;;
15490;SDS011;7847;50.930;4.336;2023-10-08T07:33:54;0.20;;;0.20;;
15490;SDS011;7847;50.930;4.336;2023-10-08T07:36:40;0.20;;;0.20;;
15490;SDS011;7847;50.930;4.336;2023-10-08T07:39:07;0.20;;;0.20;;
15490;SDS011;7847;50.930;4.336;2023-10-08T07:41:33;0.20;;;0.20;;
15490;SDS011;7847;50.930;4.336;2023-10-08T07:43:59;0.20;;;0.20;;
15490;SDS011;7847;50.930;4.336;2023-10-08T07:46:25;0.20;;;0.20;;
15490;SDS011;7847;50.930;4.336;2023-10-08T07:48:52;0.20;;;0.20;;
15490;SDS011;7847;50.930;4.336;2023-10-08T07:51:18;0.20;;;0.20;;
15490;SDS011;7847;50.930;4.336;2023-10-08T07:53:48;0.20;;;0.20;;
15490;SDS011;7847;50.930;4.336;2023-10-08T07:56:14;0.20;;;0.20;;
15490;SDS011;7847;50.930;4.336;2023-10-08T07:58:40;0.20;;;0.20;;
15490;SDS011;7847;50.930;4.336;2023-10-08T08:01:06;0.20;;;0.20;;
15490;SDS011;7847;50.930;4.336;2023-10-08T08:03:34;0.20;;;0.20;;
15490;SDS011;7847;50.930;4.336;2023-10-08T08:06:01;0.20;;;0.20;;
15490;SDS011;7847;50.930;4.336;2023-10-08T08:08:31;0.20;;;0.20;;
15490;SDS011;7847;50.930;4.336;2023-10-08T08:10:58;0.20;;;0.20;;
15490;SDS011;7847;50.930;4.336;2023-10-08T08:13:32;0.20;;;0.20;;
15490;SDS011;7847;50.930;4.336;2023-10-08T08:15:58;0.20;;;0.20;;
15490;SDS011;7847;50.930;4.336;2023-10-08T08:18:35;0.20;;;0.20;;
15490;SDS011;7847;50.930;4.336;2023-10-08T08:21:01;0.20;;;0.20;;
15490;SDS011;7847;50.930;4.336;2023-10-08T08:23:28;0.20;;;0.20;;
15490;SDS011;7847;50.930;4.336;2023-10-08T08:25:54;0.20;;;0.20;;
15490;SDS011;7847;50.930;4.336;2023-10-08T08:28:31;0.20;;;0.20;;
15490;SDS011;7847;50.930;4.336;2023-10-08T08:31:03;0.20;;;0.20;;
15490;SDS011;7847;50.930;4.336;2023-10-08T08:33:33;0.20;;;0.20;;
15490;SDS011;7847;50.930;4.336;2023-10-08T08:36:17;0.20;;;0.20;;
15490;SDS011;7847;50.930;4.336;2023-10-08T08:38:43;0.20;;;0.20;;
15490;SDS011;7847;50.930;4.336;2023-10-08T08:41:09;0.10;;;0.10;;
15490;SDS011;7847;50.930;4.336;2023-10-08T08:43:37;0.20;;;0.20;;
15490;SDS011;7847;50.930;4.336;2023-10-08T08:46:09;0.20;;;0.20;;
15490;SDS011;7847;50.930;4.336;2023-10-08T08:48:41;0.10;;;0.10;;
15490;SDS011;7847;50.930;4.336;2023-10-08T08:51:07;0.20;;;0.20;;
15490;SDS011;7847;50.930;4.336;2023-10-08T08:53:34;0.10;;;0.10;;
15490;SDS011;7847;50.930;4.336;2023-10-08T08:56:01;0.20;;;0.20;;
15490;SDS011;7847;50.930;4.336;2023-10-08T08:58:33;0.17;;;0.17;;
15490;SDS011;7847;50.930;4.336;2023-10-08T09:00:59;0.20;;;0.20;;
15490;SDS011;7847;50.930;4.336;2023-10-08T09:03:26;0.13;;;0.13;;
15490;SDS011;7847;50.930;4.336;2023-10-08T09:05:56;0.10;;;0.10;;
15490;SDS011;7847;50.930;4.336;2023-10-08T09:08:22;0.20;;;0.20;;
15490;SDS011;7847;50.930;4.336;2023-10-08T09:10:49;0.20;;;0.20;;
15490;SDS011;7847;50.930;4.336;2023-10-08T09:13:21;0.10;;;0.10;;
15490;SDS011;7847;50.930;4.336;2023-10-08T09:15:48;0.10;;;0.10;;
15490;SDS011;7847;50.930;4.336;2023-10-08T09:18:14;0.20;;;0.20;;
15490;SDS011;7847;50.930;4.336;2023-10-08T09:20:40;0.10;;;0.10;;
15490;SDS011;7847;50.930;4.336;2023-10-08T09:23:10;0.10;;;0.10;;
15490;SDS011;7847;50.930;4.336;2023-10-08T09:25:37;0.20;;;0.20;;
15490;SDS011;7847;50.930;4.336;2023-10-08T09:28:04;0.20;;;0.20;;
15490;SDS011;7847;50.930;4.336;2023-10-08T09:30:36;0.10;;;0.10;;
15490;SDS011;7847;50.930;4.336;2023-10-08T09:33:04;0.20;;;0.20;;
15490;SDS011;7847;50.930;4.336;2023-10-08T09:35:31;0.20;;;0.20;;
15490;SDS011;7847;50.930;4.336;2023-10-08T09:37:58;0.10;;;0.10;;
15490;SDS011;7847;50.930;4.336;2023-10-08T09:40:24;0.13;;;0.13;;
15490;SDS011;7847;50.930;4.336;2023-10-08T09:42:50;0.10;;;0.10;;
15490;SDS011;7847;50.930;4.336;2023-10-08T09:45:17;0.20;;;0.20;;
15490;SDS011;7847;50.930;4.336;2023-10-08T09:47:47;0.10;;;0.10;;
15490;SDS011;7847;50.930;4.336;2023-10-08T09:50:16;0.20;;;0.20;;
15490;SDS011;7847;50.930;4.336;2023-10-08T09:52:49;0.10;;;0.10;;
15490;SDS011;7847;50.930;4.336;2023-10-08T09:55:17;0.20;;;0.20;;
15490;SDS011;7847;50.930;4.336;2023-10-08T09:57:43;0.20;;;0.20;;
15490;SDS011;7847;50.930;4.336;2023-10-08T10:00:09;0.20;;;0.20;;
15490;SDS011;7847;50.930;4.336;2023-10-08T10:02:43;0.10;;;0.10;;
15490;SDS011;7847;50.930;4.336;2023-10-08T10:05:12;0.20;;;0.20;;
15490;SDS011;7847;50.930;4.336;2023-10-08T10:07:40;0.10;;;0.10;;
15490;SDS011;7847;50.930;4.336;2023-10-08T10:12:59;0.10;;;0.10;;
15490;SDS011;7847;50.930;4.336;2023-10-08T10:15:25;0.10;;;0.10;;
15490;SDS011;7847;50.930;4.336;2023-10-08T10:17:52;0.10;;;0.10;;
15490;SDS011;7847;50.930;4.336;2023-10-08T10:20:20;0.10;;;0.10;;
15490;SDS011;7847;50.930;4.336;2023-10-08T10:22:46;0.10;;;0.10;;
15490;SDS011;7847;50.930;4.336;2023-10-08T10:25:15;0.10;;;0.10;;
15490;SDS011;7847;50.930;4.336;2023-10-08T10:30:29;0.10;;;0.10;;
15490;SDS011;7847;50.930;4.336;2023-10-08T10:32:55;0.10;;;0.10;;
15490;SDS011;7847;50.930;4.336;2023-10-08T10:35:24;0.10;;;0.10;;
15490;SDS011;7847;50.930;4.336;2023-10-08T10:37:52;0.10;;;0.10;;
15490;SDS011;7847;50.930;4.336;2023-10-08T10:40:20;0.10;;;0.10;;
15490;SDS011;7847;50.930;4.336;2023-10-08T10:43:05;0.10;;;0.10;;
15490;SDS011;7847;50.930;4.336;2023-10-08T10:45:40;0.10;;;0.10;;
15490;SDS011;7847;50.930;4.336;2023-10-08T10:48:11;0.10;;;0.10;;
15490;SDS011;7847;50.930;4.336;2023-10-08T10:50:44;0.10;;;0.10;;
15490;SDS011;7847;50.930;4.336;2023-10-08T10:53:39;0.10;;;0.10;;
15490;SDS011;7847;50.930;4.336;2023-10-08T10:56:24;0.10;;;0.10;;
15490;SDS011;7847;50.930;4.336;2023-10-08T10:58:59;0.10;;;0.10;;
15490;SDS011;7847;50.930;4.336;2023-10-08T11:01:30;0.10;;;0.10;;
15490;SDS011;7847;50.930;4.336;2023-10-08T11:04:09;0.10;;;0.10;;
15490;SDS011;7847;50.930;4.336;2023-10-08T11:06:44;0.10;;;0.10;;
15490;SDS011;7847;50.930;4.336;2023-10-08T11:09:11;0.10;;;0.10;;
15490;SDS011;7847;50.930;4.336;2023-10-08T11:12:00;0.00;;;0.00;;
15490;SDS011;7847;50.930;4.336;2023-10-08T11:14:27;0.10;;;0.10;;
15490;SDS011;7847;50.930;4.336;2023-10-08T11:16:54;0.10;;;0.10;;
15490;SDS011;7847;50.930;4.336;2023-10-08T11:19:21;0.10;;;0.10;;
15490;SDS011;7847;50.930;4.336;2023-10-08T11:21:53;0.10;;;0.10;;
15490;SDS011;7847;50.930;4.336;2023-10-08T11:24:29;0.10;;;0.10;;
15490;SDS011;7847;50.930;4.336;2023-10-08T11:26:58;0.10;;;0.10;;
15490;SDS011;7847;50.930;4.336;2023-10-08T11:29:49;0.10;;;0.10;;
15490;SDS011;7847;50.930;4.336;2023-10-08T11:32:22;0.10;;;0.10;;
15490;SDS011;7847;50.930;4.336;2023-10-08T11:34:57;0.10;;;0.10;;
15490;SDS011;7847;50.930;4.336;2023-10-08T11:37:44;0.00;;;0.00;;
15490;SDS011;7847;50.930;4.336;2023-10-08T11:40:10;0.10;;;0.10;;
15490;SDS011;7847;50.930;4.336;2023-10-08T11:42:42;0.10;;;0.10;;
15490;SDS011;7847;50.930;4.336;2023-10-08T11:45:09;0.10;;;0.10;;
15490;SDS011;7847;50.930;4.336;2023-10-08T11:47:49;0.10;;;0.10;;
15490;SDS011;7847;50.930;4.336;2023-10-08T11:50:20;0.10;;;0.10;;
15490;SDS011;7847;50.930;4.336;2023-10-08T11:52:55;0.10;;;0.10;;
15490;SDS011;7847;50.930;4.336;2023-10-08T11:55:26;0.10;;;0.10;;
15490;SDS011;7847;50.930;4.336;2023-10-08T11:57:52;0.10;;;0.10;;
15490;SDS011;7847;50.930;4.336;2023-10-08T12:00:19;0.10;;;0.10;;
15490;SDS011;7847;50.930;4.336;2023-10-08T12:02:48;0.00;;;0.00;;
15490;SDS011;7847;50.930;4.336;2023-10-08T12:05:14;0.10;;;0.10;;
15490;SDS011;7847;50.930;4.336;2023-10-08T12:07:47;0.10;;;0.10;;
15490;SDS011;7847;50.930;4.336;2023-10-08T12:10:13;0.10;;;0.10;;
15490;SDS011;7847;50.930;4.336;2023-10-08T12:12:45;0.10;;;0.10;;
15490;SDS011;7847;50.930;4.336;2023-10-08T12:15:11;0.10;;;0.10;;
15490;SDS011;7847;50.930;4.336;2023-10-08T12:17:44;0.10;;;0.10;;
15490;SDS011;7847;50.930;4.336;2023-10-08T12:20:18;0.00;;;0.00;;
15490;SDS011;7847;50.930;4.336;2023-10-08T12:22:51;0.10;;;0.10;;
15490;SDS011;7847;50.930;4.336;2023-10-08T12:25:17;0.00;;;0.00;;
15490;SDS011;7847;50.930;4.336;2023-10-08T12:27:44;0.00;;;0.00;;
15490;SDS011;7847;50.930;4.336;2023-10-08T12:30:10;0.10;;;0.10;;
15490;SDS011;7847;50.930;4.336;2023-10-08T12:32:36;0.10;;;0.10;;
15490;SDS011;7847;50.930;4.336;2023-10-08T12:35:07;0.00;;;0.00;;
15490;SDS011;7847;50.930;4.336;2023-10-08T12:37:38;0.10;;;0.10;;
15490;SDS011;7847;50.930;4.336;2023-10-08T12:40:04;0.00;;;0.00;;
15490;SDS011;7847;50.930;4.336;2023-10-08T12:42:37;0.10;;;0.10;;
15490;SDS011;7847;50.930;4.336;2023-10-08T12:45:09;0.10;;;0.10;;
15490;SDS011;7847;50.930;4.336;2023-10-08T12:47:38;0.00;;;0.00;;
15490;SDS011;7847;50.930;4.336;2023-10-08T12:50:04;0.00;;;0.00;;
15490;SDS011;7847;50.930;4.336;2023-10-08T12:52:33;0.10;;;0.10;;
15490;SDS011;7847;50.930;4.336;2023-10-08T12:55:07;0.00;;;0.00;;
15490;SDS011;7847;50.930;4.336;2023-10-08T12:57:33;0.00;;;0.00;;
15490;SDS011;7847;50.930;4.336;2023-10-08T13:00:02;0.00;;;0.00;;
15490;SDS011;7847;50.930;4.336;2023-10-08T13:02:30;0.10;;;0.10;;
15490;SDS011;7847;50.930;4.336;2023-10-08T13:04:56;0.10;;;0.10;;
15490;SDS011;7847;50.930;4.336;2023-10-08T13:07:24;0.00;;;0.00;;
15490;SDS011;7847;50.930;4.336;2023-10-08T13:09:51;0.00;;;0.00;;
15490;SDS011;7847;50.930;4.336;2023-10-08T13:12:18;0.10;;;0.10;;
15490;SDS011;7847;50.930;4.336;2023-10-08T13:14:44;0.10;;;0.10;;
15490;SDS011;7847;50.930;4.336;2023-10-08T13:17:10;0.10;;;0.10;;
15490;SDS011;7847;50.930;4.336;2023-10-08T13:19:37;0.00;;;0.00;;
15490;SDS011;7847;50.930;4.336;2023-10-08T13:22:03;0.00;;;0.00;;
15490;SDS011;7847;50.930;4.336;2023-10-08T13:24:32;0.00;;;0.00;;
15490;SDS011;7847;50.930;4.336;2023-10-08T13:27:00;0.10;;;0.10;;
15490;SDS011;7847;50.930;4.336;2023-10-08T13:29:26;0.00;;;0.00;;
15490;SDS011;7847;50.930;4.336;2023-10-08T13:31:57;0.00;;;0.00;;
15490;SDS011;7847;50.930;4.336;2023-10-08T13:34:23;0.00;;;0.00;;
15490;SDS011;7847;50.930;4.336;2023-10-08T13:36:51;0.00;;;0.00;;
15490;SDS011;7847;50.930;4.336;2023-10-08T13:39:17;0.10;;;0.10;;
15490;SDS011;7847;50.930;4.336;2023-10-08T13:41:44;0.00;;;0.00;;
15490;SDS011;7847;50.930;4.336;2023-10-08T13:44:13;0.00;;;0.00;;
15490;SDS011;7847;50.930;4.336;2023-10-08T13:46:39;0.00;;;0.00;;
15490;SDS011;7847;50.930;4.336;2023-10-08T13:49:08;0.00;;;0.00;;
15490;SDS011;7847;50.930;4.336;2023-10-08T13:51:35;0.03;;;0.03;;
15490;SDS011;7847;50.930;4.336;2023-10-08T13:54:03;0.00;;;0.00;;
15490;SDS011;7847;50.930;4.336;2023-10-08T13:56:32;0.00;;;0.00;;
15490;SDS011;7847;50.930;4.336;2023-10-08T13:58:59;0.00;;;0.00;;
15490;SDS011;7847;50.930;4.336;2023-10-08T14:01:37;0.00;;;0.00;;
15490;SDS011;7847;50.930;4.336;2023-10-08T14:04:05;0.00;;;0.00;;
15490;SDS011;7847;50.930;4.336;2023-10-08T14:06:33;0.10;;;0.10;;
15490;SDS011;7847;50.930;4.336;2023-10-08T14:09:02;0.00;;;0.00;;
15490;SDS011;7847;50.930;4.336;2023-10-08T14:11:37;0.10;;;0.10;;
15490;SDS011;7847;50.930;4.336;2023-10-08T14:14:03;0.00;;;0.00;;
15490;SDS011;7847;50.930;4.336;2023-10-08T14:16:39;0.00;;;0.00;;
15490;SDS011;7847;50.930;4.336;2023-10-08T14:19:11;0.05;;;0.05;;
15490;SDS011;7847;50.930;4.336;2023-10-08T14:21:38;0.00;;;0.00;;
15490;SDS011;7847;50.930;4.336;2023-10-08T14:24:14;0.00;;;0.00;;
15490;SDS011;7847;50.930;4.336;2023-10-08T14:26:40;0.00;;;0.00;;
15490;SDS011;7847;50.930;4.336;2023-10-08T14:29:07;0.00;;;0.00;;
15490;SDS011;7847;50.930;4.336;2023-10-08T14:31:36;0.00;;;0.00;;
15490;SDS011;7847;50.930;4.336;2023-10-08T14:34:07;0.00;;;0.00;;
15490;SDS011;7847;50.930;4.336;2023-10-08T14:36:45;0.10;;;0.10;;
15490;SDS011;7847;50.930;4.336;2023-10-08T14:39:31;0.00;;;0.00;;
15490;SDS011;7847;50.930;4.336;2023-10-08T14:42:16;0.00;;;0.00;;
15490;SDS011;7847;50.930;4.336;2023-10-08T14:45:00;0.00;;;0.00;;
15490;SDS011;7847;50.930;4.336;2023-10-08T14:47:27;0.10;;;0.10;;
15490;SDS011;7847;50.930;4.336;2023-10-08T14:49:53;0.10;;;0.10;;
15490;SDS011;7847;50.930;4.336;2023-10-08T14:52:19;0.00;;;0.00;;
15490;SDS011;7847;50.930;4.336;2023-10-08T14:54:45;0.00;;;0.00;;
15490;SDS011;7847;50.930;4.336;2023-10-08T14:57:12;0.00;;;0.00;;
15490;SDS011;7847;50.930;4.336;2023-10-08T14:59:40;0.05;;;0.05;;
15490;SDS011;7847;50.930;4.336;2023-10-08T15:02:07;0.00;;;0.00;;
15490;SDS011;7847;50.930;4.336;2023-10-08T15:04:35;0.10;;;0.10;;
15490;SDS011;7847;50.930;4.336;2023-10-08T15:07:04;0.10;;;0.10;;
15490;SDS011;7847;50.930;4.336;2023-10-08T15:09:33;0.00;;;0.00;;
15490;SDS011;7847;50.930;4.336;2023-10-08T15:11:59;0.00;;;0.00;;
15490;SDS011;7847;50.930;4.336;2023-10-08T15:14:26;0.00;;;0.00;;
15490;SDS011;7847;50.930;4.336;2023-10-08T15:16:52;0.05;;;0.05;;
15490;SDS011;7847;50.930;4.336;2023-10-08T15:19:20;0.00;;;0.00;;
15490;SDS011;7847;50.930;4.336;2023-10-08T15:21:50;0.00;;;0.00;;
15490;SDS011;7847;50.930;4.336;2023-10-08T15:24:22;0.00;;;0.00;;
15490;SDS011;7847;50.930;4.336;2023-10-08T15:26:52;0.00;;;0.00;;
15490;SDS011;7847;50.930;4.336;2023-10-08T15:29:19;0.00;;;0.00;;